Time;durP1;ratioP1;P1;durP2;ratioP2;P2;SDS_P1;SDS_P2;PMS_P1;PMS_P2;Temp;Humidity;BMP_temperature;BMP_pressure;BME280_temperature;BME280_humidity;BME280_pressure;Samples;Min_cycle;Max_cycle;Signal;HPM_P1;HPM_P2
2022/05/01 01:21:09;;;;;;;48.00;30.55;;;15.50;56.70;;;;;;5047031;28;20059;-65
2022/05/01 01:23:35;;;;;;;53.45;32.28;;;15.50;58.80;;;;;;5047818;28;20061;-69
2022/05/01 01:26:04;;;;;;;49.47;31.85;;;15.40;58.80;;;;;;5053092;28;20040;-65
2022/05/01 01:28:34;;;;;;;51.85;33.50;;;15.40;59.50;;;;;;5052747;28;20036;-65
2022/05/01 01:33:51;;;;;;;50.38;31.40;;;15.40;57.90;;;;;;5052984;28;20047;-69
2022/05/01 01:36:20;;;;;;;52.00;32.13;;;15.40;57.30;;;;;;5052435;28;20106;-65
2022/05/01 01:38:46;;;;;;;49.05;31.00;;;15.40;57.60;;;;;;5052897;28;20025;-65
2022/05/01 01:41:15;;;;;;;54.00;31.58;;;15.40;57.40;;;;;;5052776;28;20441;-68
2022/05/01 01:43:43;;;;;;;49.50;31.42;;;15.40;57.40;;;;;;5052456;28;20410;-66
2022/05/01 01:46:09;;;;;;;47.40;28.45;;;15.40;58.60;;;;;;5052487;28;20489;-65
2022/05/01 01:48:35;;;;;;;47.22;29.52;;;15.40;58.80;;;;;;5052843;28;20029;-65
2022/05/01 01:51:03;;;;;;;48.33;30.27;;;15.40;58.80;;;;;;5052943;28;20037;-65
2022/05/01 01:53:31;;;;;;;47.42;30.75;;;15.40;58.70;;;;;;5052867;28;20472;-65
2022/05/01 01:55:57;;;;;;;50.53;30.80;;;15.30;58.80;;;;;;5052419;28;20515;-65
2022/05/01 01:58:24;;;;;;;47.08;29.45;;;15.30;59.50;;;;;;5052535;28;20103;-69
2022/05/01 02:00:51;;;;;;;46.17;29.73;;;15.30;60.00;;;;;;5052506;28;20485;-65
2022/05/01 02:03:17;;;;;;;35.72;24.65;;;15.30;60.60;;;;;;5052724;28;20037;-65
2022/05/01 02:05:43;;;;;;;37.10;21.70;;;15.20;61.30;;;;;;5052344;28;20068;-65
2022/05/01 02:08:09;;;;;;;29.33;19.13;;;15.30;60.90;;;;;;5052718;28;20053;-65
2022/05/01 02:10:36;;;;;;;22.90;16.17;;;15.30;60.30;;;;;;5053609;28;20095;-69
2022/05/01 02:13:02;;;;;;;32.53;19.17;;;15.30;60.40;;;;;;5056200;28;20060;-65
2022/05/01 02:15:32;;;;;;;31.30;20.67;;;15.40;59.80;;;;;;5056032;28;20044;-65
2022/05/01 02:17:59;;;;;;;30.08;20.33;;;15.40;59.90;;;;;;5056413;28;20039;-65
2022/05/01 02:21:33;;;;;;;30.20;18.85;;;15.40;61.00;;;;;;5056504;28;20044;-65
2022/05/01 02:23:15;;;;;;;29.65;20.15;;;15.40;61.00;;;;;;5056169;28;20040;-64
2022/05/01 02:25:40;;;;;;;30.63;19.80;;;15.40;60.10;;;;;;5055930;28;20443;-65
2022/05/01 02:28:06;;;;;;;25.98;17.80;;;15.30;61.20;;;;;;5056417;28;20044;-65
2022/05/01 02:30:32;;;;;;;30.63;18.83;;;15.30;61.50;;;;;;5056337;28;20025;-69
2022/05/01 02:32:58;;;;;;;30.00;19.25;;;15.40;61.50;;;;;;5056170;28;20524;-65
2022/05/01 02:35:23;;;;;;;32.08;20.38;;;15.40;61.60;;;;;;5056071;28;20036;-66
2022/05/01 02:37:49;;;;;;;29.27;19.92;;;15.40;60.70;;;;;;5055921;28;20389;-65
2022/05/01 02:40:15;;;;;;;31.50;21.02;;;15.40;62.30;;;;;;5055817;28;20029;-65
2022/05/01 02:42:42;;;;;;;32.50;21.00;;;15.40;61.60;;;;;;5055766;28;20048;-67
2022/05/01 02:45:08;;;;;;;33.80;21.08;;;15.40;61.40;;;;;;5055936;28;20045;-65
2022/05/01 02:47:34;;;;;;;32.35;20.85;;;15.40;62.70;;;;;;5055546;28;20041;-64
2022/05/01 02:50:00;;;;;;;30.45;19.80;;;15.40;62.10;;;;;;5055566;28;20500;-65
2022/05/01 02:52:25;;;;;;;27.92;19.63;;;15.40;62.20;;;;;;5055902;28;20424;-66
2022/05/01 02:54:51;;;;;;;26.02;18.33;;;15.40;62.70;;;;;;5055535;28;20453;-66
2022/05/01 02:57:17;;;;;;;28.42;18.20;;;15.40;62.60;;;;;;5055691;28;20675;-65
2022/05/01 02:59:43;;;;;;;27.45;17.70;;;15.40;63.30;;;;;;5055582;28;20029;-68
2022/05/01 03:02:09;;;;;;;28.48;17.38;;;15.40;62.50;;;;;;5055616;28;20033;-68
2022/05/01 03:04:35;;;;;;;35.25;21.02;;;15.40;62.90;;;;;;5055903;28;20029;-68
2022/05/01 03:07:04;;;;;;;37.45;23.25;;;15.40;61.80;;;;;;5055287;28;20037;-69
2022/05/01 03:09:30;;;;;;;36.22;22.80;;;15.40;61.50;;;;;;5055362;28;20084;-69
2022/05/01 03:11:55;;;;;;;32.63;22.63;;;15.30;62.10;;;;;;5055568;28;20025;-68
2022/05/01 03:14:21;;;;;;;35.60;22.48;;;15.30;62.20;;;;;;5055454;28;20029;-66
2022/05/01 03:16:46;;;;;;;29.42;20.33;;;15.20;63.30;;;;;;5055102;28;20512;-68
2022/05/01 03:22:13;;;;;;;28.95;17.25;;;15.20;63.30;;;;;;5053566;28;20048;-65
2022/05/01 03:24:39;;;;;;;24.75;16.30;;;15.20;63.60;;;;;;5055407;28;20452;-65
2022/05/01 03:27:05;;;;;;;27.88;16.08;;;15.20;64.80;;;;;;5055024;28;20041;-69
2022/05/01 03:29:32;;;;;;;20.88;14.43;;;15.10;64.80;;;;;;5055261;28;20034;-65
2022/05/01 03:31:59;;;;;;;26.25;16.35;;;15.10;64.80;;;;;;5055212;28;20044;-66
2022/05/01 03:34:26;;;;;;;24.95;15.02;;;15.20;64.50;;;;;;5054702;28;20474;-65
2022/05/01 03:36:53;;;;;;;18.73;12.85;;;15.20;64.90;;;;;;5054658;28;20048;-65
2022/05/01 03:39:19;;;;;;;32.72;20.95;;;15.10;65.50;;;;;;5054928;28;20120;-69
2022/05/01 03:41:45;;;;;;;31.17;19.75;;;15.20;64.00;;;;;;5054610;28;20048;-66
2022/05/01 03:44:11;;;;;;;26.92;17.10;;;15.20;63.90;;;;;;5054543;28;20033;-65
2022/05/01 03:46:38;;;;;;;24.75;12.82;;;15.10;65.40;;;;;;5054639;28;20124;-69
2022/05/01 03:49:05;;;;;;;25.05;16.13;;;15.20;64.50;;;;;;5054764;28;20041;-65
2022/05/01 03:51:31;;;;;;;24.23;16.60;;;15.10;65.40;;;;;;5054521;28;20120;-65
2022/05/01 03:54:02;;;;;;;28.45;16.13;;;15.10;64.20;;;;;;5054750;28;20061;-65
2022/05/01 03:56:31;;;;;;;23.02;15.15;;;15.10;64.10;;;;;;5054453;28;20060;-65
2022/05/01 03:58:57;;;;;;;25.73;16.08;;;15.10;64.70;;;;;;5054497;28;20436;-65
2022/05/01 04:01:26;;;;;;;24.05;15.00;;;15.10;65.60;;;;;;5054483;28;20444;-65
2022/05/01 04:03:53;;;;;;;19.70;14.52;;;15.10;66.40;;;;;;5054385;28;20029;-65
2022/05/01 04:06:19;;;;;;;23.20;13.82;;;15.10;65.40;;;;;;5054543;28;20033;-70
2022/05/01 04:08:45;;;;;;;18.85;13.05;;;15.10;65.70;;;;;;5054547;28;20087;-65
2022/05/01 04:11:11;;;;;;;20.25;12.50;;;15.10;66.10;;;;;;5054254;28;20488;-68
2022/05/01 04:13:37;;;;;;;19.00;12.68;;;15.10;64.90;;;;;;5054146;28;20036;-65
2022/05/01 04:16:03;;;;;;;15.60;10.80;;;15.10;64.90;;;;;;5054185;28;20390;-68
2022/05/01 04:18:31;;;;;;;17.23;12.55;;;15.10;64.70;;;;;;5054146;28;20033;-65
2022/05/01 04:20:57;;;;;;;20.65;11.73;;;15.20;64.10;;;;;;5054208;28;20223;-66
2022/05/01 04:23:24;;;;;;;14.98;9.75;;;15.20;64.60;;;;;;5053936;28;20400;-65
2022/05/01 04:25:50;;;;;;;10.25;7.43;;;15.20;64.40;;;;;;5053805;28;20135;-65
2022/05/01 04:28:16;;;;;;;15.50;9.85;;;15.20;64.20;;;;;;5054186;28;20051;-65
2022/05/01 04:30:42;;;;;;;12.13;8.65;;;15.20;64.60;;;;;;5053906;28;20033;-65
2022/05/01 04:33:15;;;;;;;12.30;8.38;;;15.20;64.30;;;;;;5053754;28;20029;-65
2022/05/01 04:35:46;;;;;;;13.50;7.78;;;15.20;64.10;;;;;;5053598;28;20029;-68
2022/05/01 04:38:20;;;;;;;16.40;10.20;;;15.20;63.60;;;;;;5053955;28;20112;-70
2022/05/01 04:40:54;;;;;;;26.55;17.65;;;15.30;63.00;;;;;;5053647;28;20037;-70
2022/05/01 04:43:21;;;;;;;37.63;23.98;;;15.30;63.00;;;;;;5053636;28;20178;-66
2022/05/01 04:45:52;;;;;;;42.65;25.88;;;15.30;63.00;;;;;;5053529;28;20443;-69
2022/05/01 04:48:19;;;;;;;39.03;24.95;;;15.30;62.80;;;;;;5053468;28;20482;-68
2022/05/01 04:50:47;;;;;;;43.35;25.85;;;15.20;64.30;;;;;;5053366;28;20065;-68
2022/05/01 04:53:14;;;;;;;47.03;25.77;;;15.10;64.80;;;;;;5053184;28;20037;-68
2022/05/01 04:55:41;;;;;;;42.80;24.60;;;15.10;65.40;;;;;;5053473;28;20095;-65
2022/05/01 04:58:07;;;;;;;38.05;25.02;;;15.10;64.70;;;;;;5053307;28;20119;-66
2022/05/01 05:00:33;;;;;;;37.13;23.67;;;15.10;63.80;;;;;;5053639;28;20389;-67
2022/05/01 05:02:59;;;;;;;39.40;21.83;;;15.10;65.70;;;;;;5053580;28;20108;-69
2022/05/01 05:05:27;;;;;;;32.20;21.08;;;15.00;65.40;;;;;;5052878;28;20069;-67
2022/05/01 05:07:53;;;;;;;30.70;19.02;;;15.00;66.40;;;;;;5053342;28;20486;-67
2022/05/01 05:10:19;;;;;;;33.58;18.58;;;15.00;65.60;;;;;;5053050;28;20116;-66
2022/05/01 05:12:48;;;;;;;25.50;16.35;;;15.10;66.70;;;;;;5052999;28;20156;-69
2022/05/01 05:15:15;;;;;;;30.67;18.55;;;15.10;66.90;;;;;;5053192;28;20393;-68
2022/05/01 05:17:42;;;;;;;25.05;17.48;;;15.10;66.60;;;;;;5053126;28;20446;-65
2022/05/01 05:20:11;;;;;;;25.60;16.52;;;15.10;66.80;;;;;;5052900;28;20123;-69
2022/05/01 05:22:37;;;;;;;21.45;13.88;;;15.20;66.90;;;;;;5053044;28;20045;-68
2022/05/01 05:25:12;;;;;;;21.38;12.23;;;15.20;67.20;;;;;;5052890;28;20037;-68
2022/05/01 05:27:38;;;;;;;14.13;9.80;;;15.30;66.10;;;;;;5053205;28;20029;-66
2022/05/01 05:30:04;;;;;;;16.67;8.35;;;15.30;66.30;;;;;;5052790;28;20126;-69
2022/05/01 05:32:30;;;;;;;13.02;6.57;;;15.30;65.70;;;;;;5053258;28;20396;-69
2022/05/01 05:34:56;;;;;;;10.20;5.57;;;15.40;65.30;;;;;;5053221;28;20033;-69
2022/05/01 05:37:21;;;;;;;7.03;4.97;;;15.50;65.10;;;;;;5052758;28;20045;-65
2022/05/01 05:39:47;;;;;;;7.38;5.30;;;15.60;65.30;;;;;;5052870;28;20437;-65
2022/05/01 05:42:13;;;;;;;9.68;4.53;;;15.70;65.30;;;;;;5052697;28;20040;-66
2022/05/01 05:44:39;;;;;;;8.07;4.57;;;15.80;64.40;;;;;;5052344;28;20021;-65
2022/05/01 05:47:05;;;;;;;5.78;4.30;;;15.90;63.90;;;;;;5056149;28;20398;-65
2022/05/01 05:49:31;;;;;;;5.80;4.47;;;16.00;63.00;;;;;;5056670;28;20032;-66
2022/05/01 05:51:58;;;;;;;7.00;4.53;;;16.10;62.40;;;;;;5056830;28;20100;-65
2022/05/01 05:54:24;;;;;;;6.45;4.57;;;16.20;61.70;;;;;;5056725;28;20115;-65
2022/05/01 05:56:49;;;;;;;12.20;4.28;;;16.30;61.20;;;;;;5056754;28;20128;-65
2022/05/01 05:59:16;;;;;;;8.73;4.05;;;16.30;61.10;;;;;;5056625;28;20055;-65
2022/05/01 06:01:42;;;;;;;6.72;4.03;;;16.40;61.10;;;;;;5056623;28;20362;-65
2022/05/01 06:04:07;;;;;;;7.63;4.43;;;16.50;61.10;;;;;;5056716;28;20496;-64
2022/05/01 06:06:34;;;;;;;6.63;4.30;;;16.60;60.70;;;;;;5056566;28;20033;-65
2022/05/01 06:09:01;;;;;;;7.28;4.78;;;16.70;60.20;;;;;;5056471;28;20072;-65
2022/05/01 06:11:27;;;;;;;4.60;4.03;;;16.80;59.90;;;;;;5056397;28;20037;-65
2022/05/01 06:13:53;;;;;;;5.53;3.80;;;16.90;59.70;;;;;;5056284;28;20119;-69
2022/05/01 06:16:19;;;;;;;6.97;4.50;;;16.90;59.50;;;;;;5056430;28;20045;-65
2022/05/01 06:18:46;;;;;;;6.15;4.07;;;17.00;59.90;;;;;;5056135;28;20371;-66
2022/05/01 06:21:12;;;;;;;8.05;4.13;;;17.00;60.10;;;;;;5056195;28;20033;-65
2022/05/01 06:23:38;;;;;;;5.65;3.75;;;17.10;59.80;;;;;;5053858;28;20057;-66
2022/05/01 06:26:05;;;;;;;5.90;4.22;;;17.10;60.00;;;;;;5053423;28;20069;-65
2022/05/01 06:28:31;;;;;;;7.75;4.18;;;17.20;59.80;;;;;;5053235;28;20485;-67
2022/05/01 06:30:58;;;;;;;5.93;4.07;;;17.20;60.10;;;;;;5055460;28;20033;-66
2022/05/01 06:33:25;;;;;;;4.85;4.30;;;17.20;60.10;;;;;;5052583;28;20116;-65
2022/05/01 06:35:53;;;;;;;5.35;3.88;;;17.30;60.30;;;;;;5053203;28;20041;-69
2022/05/01 06:38:19;;;;;;;6.22;4.15;;;17.40;60.50;;;;;;5052773;28;20116;-67
2022/05/01 06:40:46;;;;;;;8.18;4.40;;;17.40;60.80;;;;;;5053136;28;20120;-69
2022/05/01 06:43:13;;;;;;;7.53;4.30;;;17.40;60.80;;;;;;5053734;28;20087;-68
2022/05/01 06:45:39;;;;;;;8.43;4.43;;;17.50;60.60;;;;;;5055840;28;20036;-64
2022/05/01 06:48:07;;;;;;;9.73;4.55;;;17.60;60.20;;;;;;5055860;28;20041;-64
2022/05/01 06:50:33;;;;;;;8.35;4.68;;;17.70;60.40;;;;;;5055777;28;20042;-69
2022/05/01 06:52:58;;;;;;;9.85;5.15;;;17.80;59.80;;;;;;5055739;28;20033;-64
2022/05/01 06:55:25;;;;;;;6.72;4.65;;;17.90;60.20;;;;;;5055323;28;20033;-65
2022/05/01 06:57:54;;;;;;;8.30;5.22;;;18.00;59.70;;;;;;5054552;28;20509;-64
2022/05/01 07:00:21;;;;;;;6.78;4.22;;;18.10;60.00;;;;;;5055386;28;20064;-64
2022/05/01 07:02:49;;;;;;;8.57;5.00;;;18.20;59.00;;;;;;5055141;28;20064;-65
2022/05/01 07:05:15;;;;;;;4.93;3.63;;;18.30;58.00;;;;;;5055174;28;20068;-66
2022/05/01 07:07:41;;;;;;;5.65;3.88;;;18.30;58.40;;;;;;5055173;28;20021;-66
2022/05/01 07:10:08;;;;;;;6.57;3.70;;;18.40;58.00;;;;;;5054981;28;20068;-69
2022/05/01 07:12:35;;;;;;;4.30;3.58;;;18.40;57.40;;;;;;5055024;28;20040;-70
2022/05/01 07:15:01;;;;;;;9.00;4.10;;;18.40;57.40;;;;;;5054905;28;20123;-66
2022/05/01 07:17:27;;;;;;;6.38;3.38;;;18.50;57.00;;;;;;5054945;28;20135;-66
2022/05/01 07:19:52;;;;;;;6.50;3.70;;;18.50;57.10;;;;;;5053149;28;20088;-64
2022/05/01 07:22:18;;;;;;;6.35;4.28;;;18.50;57.10;;;;;;5054477;28;20556;-67
2022/05/01 07:24:44;;;;;;;8.15;4.00;;;18.50;57.20;;;;;;5054129;28;20036;-66
2022/05/01 07:27:10;;;;;;;5.47;3.92;;;18.60;57.40;;;;;;5053329;28;20067;-64
2022/05/01 07:29:36;;;;;;;9.82;4.88;;;18.60;57.20;;;;;;5054475;28;20033;-64
2022/05/01 07:32:02;;;;;;;6.13;4.13;;;18.70;56.60;;;;;;5054329;28;20029;-64
2022/05/01 07:34:28;;;;;;;6.88;4.13;;;18.70;56.90;;;;;;5054253;28;20555;-66
2022/05/01 07:36:53;;;;;;;6.53;4.20;;;18.80;56.20;;;;;;5027081;28;20037;-64
2022/05/01 07:39:19;;;;;;;4.90;4.03;;;18.70;56.20;;;;;;5047573;28;20393;-65
2022/05/01 07:41:45;;;;;;;4.85;4.07;;;18.80;56.50;;;;;;5064040;28;20032;-65
2022/05/01 07:44:14;;;;;;;8.55;3.90;;;18.80;56.10;;;;;;5072852;28;20044;-64
2022/05/01 07:46:40;;;;;;;6.40;4.18;;;18.80;56.10;;;;;;5073722;28;20040;-66
2022/05/01 07:49:07;;;;;;;5.50;4.13;;;18.80;55.80;;;;;;5067667;28;20120;-66
2022/05/01 07:51:33;;;;;;;7.82;4.53;;;18.80;56.20;;;;;;5073878;28;20032;-66
2022/05/01 07:53:59;;;;;;;8.50;4.43;;;18.90;54.90;;;;;;5073703;28;20086;-66
2022/05/01 07:56:25;;;;;;;6.65;4.30;;;18.90;55.30;;;;;;5073744;28;20055;-65
2022/05/01 07:58:51;;;;;;;8.75;4.38;;;18.90;54.70;;;;;;5073846;28;20040;-65
2022/05/01 08:01:17;;;;;;;9.57;4.70;;;18.90;54.60;;;;;;5072062;28;20105;-64
2022/05/01 08:06:27;;;;;;;6.20;4.55;;;18.90;55.20;;;;;;5074341;28;20063;-65
2022/05/01 08:08:53;;;;;;;5.15;4.65;;;19.00;54.20;;;;;;5073035;28;20472;-64
2022/05/01 08:11:18;;;;;;;6.75;4.95;;;19.00;54.90;;;;;;5073436;28;20040;-63
2022/05/01 08:13:44;;;;;;;9.25;4.82;;;19.00;54.40;;;;;;5074267;28;20032;-63
2022/05/01 08:16:10;;;;;;;6.65;4.40;;;19.10;54.50;;;;;;5072872;28;20500;-62
2022/05/01 08:21:21;;;;;;;6.13;4.85;;;19.20;54.70;;;;;;5074253;28;20423;-66
2022/05/01 08:23:47;;;;;;;6.90;4.68;;;19.20;54.70;;;;;;5073355;28;20424;-63
2022/05/01 08:26:13;;;;;;;7.82;4.50;;;19.20;54.50;;;;;;5073618;28;20032;-64
2022/05/01 08:28:40;;;;;;;5.55;4.55;;;19.30;54.50;;;;;;5071526;28;20040;-63
2022/05/01 08:31:07;;;;;;;5.50;4.60;;;19.30;54.60;;;;;;5069761;28;20073;-63
2022/05/01 08:33:34;;;;;;;8.00;4.80;;;19.30;53.00;;;;;;5072438;28;20396;-63
2022/05/01 08:36:02;;;;;;;9.48;4.50;;;19.30;53.40;;;;;;5073900;28;20036;-63
2022/05/01 08:38:28;;;;;;;7.05;4.65;;;19.30;53.50;;;;;;5073960;28;20132;-65
2022/05/01 08:40:54;;;;;;;9.52;4.90;;;19.40;52.80;;;;;;5073323;28;20059;-64
2022/05/01 08:43:21;;;;;;;6.90;4.75;;;19.40;53.10;;;;;;5073283;28;20033;-63
2022/05/01 08:45:53;;;;;;;5.60;4.80;;;19.40;53.00;;;;;;5073544;28;20558;-66
2022/05/01 08:48:29;;;;;;;7.07;4.75;;;19.50;53.90;;;;;;5073686;28;20112;-64
2022/05/01 08:50:55;;;;;;;6.35;4.38;;;19.50;52.40;;;;;;5073576;28;20048;-63
2022/05/01 08:53:23;;;;;;;6.57;4.90;;;19.60;53.00;;;;;;5071772;28;20044;-63
2022/05/01 08:55:50;;;;;;;5.80;4.20;;;19.60;52.50;;;;;;5070715;28;20047;-64
2022/05/01 08:58:16;;;;;;;6.43;4.55;;;19.70;52.90;;;;;;5070621;28;20044;-64
2022/05/01 09:00:43;;;;;;;5.65;4.40;;;19.70;51.80;;;;;;5072364;28;20036;-64
2022/05/01 09:03:09;;;;;;;7.40;4.25;;;19.70;52.20;;;;;;5073396;28;20511;-64
2022/05/01 09:05:35;;;;;;;9.70;4.35;;;19.80;54.00;;;;;;5073349;28;20029;-63
2022/05/01 09:08:00;;;;;;;6.57;4.75;;;19.90;53.50;;;;;;5072978;28;20032;-63
2022/05/01 09:10:27;;;;;;;5.57;4.20;;;19.90;52.60;;;;;;5073425;28;20039;-63
2022/05/01 09:12:53;;;;;;;10.70;4.35;;;20.00;51.80;;;;;;5072978;28;20067;-63
2022/05/01 09:15:28;;;;;;;8.50;4.15;;;20.00;51.50;;;;;;5073068;28;20044;-63
2022/05/01 09:18:08;;;;;;;7.97;4.53;;;20.10;51.00;;;;;;5073731;28;20538;-64
2022/05/01 09:20:57;;;;;;;6.43;4.03;;;20.10;51.40;;;;;;5072145;28;20059;-64
2022/05/01 09:23:41;;;;;;;4.55;4.07;;;20.10;51.20;;;;;;5072310;28;20044;-65
2022/05/01 09:26:10;;;;;;;4.88;4.10;;;20.10;50.20;;;;;;5072809;28;20032;-66
2022/05/01 09:28:37;;;;;;;8.48;4.57;;;20.10;50.00;;;;;;5072771;28;20035;-63
2022/05/01 09:31:04;;;;;;;6.18;4.20;;;20.10;50.20;;;;;;5072343;28;20037;-64
2022/05/01 09:33:30;;;;;;;8.60;4.70;;;20.20;50.70;;;;;;5072748;28;20082;-64
2022/05/01 09:35:56;;;;;;;5.25;4.07;;;20.30;51.40;;;;;;5072938;28;20036;-63
2022/05/01 09:38:26;;;;;;;5.75;4.25;;;20.30;51.60;;;;;;5072996;28;20112;-63
2022/05/01 09:40:55;;;;;;;5.22;3.97;;;20.40;51.10;;;;;;5072376;28;20456;-64
2022/05/01 09:43:44;;;;;;;8.52;4.28;;;20.40;50.70;;;;;;5072890;28;20508;-65
2022/05/01 09:46:19;;;;;;;5.10;4.07;;;20.50;50.70;;;;;;5073147;28;20377;-63
2022/05/01 09:49:12;;;;;;;6.63;4.40;;;20.60;51.40;;;;;;5072825;28;20094;-64
2022/05/01 09:51:46;;;;;;;6.63;3.90;;;20.60;50.40;;;;;;5072763;28;20595;-64
2022/05/01 09:54:22;;;;;;;5.03;4.38;;;20.70;49.20;;;;;;5072971;28;20040;-64
2022/05/01 09:56:52;;;;;;;10.90;4.88;;;20.70;49.20;;;;;;5072615;28;20047;-63
2022/05/01 09:59:20;;;;;;;5.18;4.65;;;20.80;49.30;;;;;;5072863;28;20393;-63
2022/05/01 10:01:56;;;;;;;9.57;4.63;;;20.80;48.90;;;;;;5072765;28;20037;-64
2022/05/01 10:04:23;;;;;;;4.93;4.25;;;20.90;49.70;;;;;;5072672;28;20039;-64
2022/05/01 10:06:52;;;;;;;6.10;4.60;;;20.90;49.20;;;;;;5072844;28;20025;-63
2022/05/01 10:09:19;;;;;;;7.13;4.90;;;20.90;48.40;;;;;;5072900;28;20396;-64
2022/05/01 10:11:46;;;;;;;10.95;5.00;;;20.90;47.70;;;;;;5072829;28;20033;-63
2022/05/01 10:14:12;;;;;;;7.07;5.15;;;20.90;48.40;;;;;;5072702;28;20520;-63
2022/05/01 10:16:40;;;;;;;5.28;4.35;;;20.90;48.90;;;;;;5072531;28;20083;-64
2022/05/01 10:19:07;;;;;;;6.07;4.82;;;20.90;48.30;;;;;;5072653;28;20032;-64
2022/05/01 10:21:36;;;;;;;7.20;5.20;;;20.80;48.50;;;;;;5072505;28;20040;-63
2022/05/01 10:24:02;;;;;;;6.53;5.00;;;20.80;48.50;;;;;;5072523;28;20103;-64
2022/05/01 10:26:32;;;;;;;5.82;5.05;;;20.80;48.40;;;;;;5072609;28;20439;-64
2022/05/01 10:29:31;;;;;;;7.03;5.30;;;20.80;48.70;;;;;;5072453;28;20036;-63
2022/05/01 10:35:04;;;;;;;8.93;5.93;;;20.80;49.10;;;;;;5076014;28;20028;-63
2022/05/01 10:37:42;;;;;;;7.43;6.03;;;20.70;49.00;;;;;;5031479;28;20396;-63
2022/05/01 10:40:08;;;;;;;9.23;5.93;;;20.70;49.00;;;;;;5076083;28;20431;-63
2022/05/01 10:42:38;;;;;;;8.73;6.38;;;20.60;49.50;;;;;;5076071;28;20059;-63
2022/05/01 10:45:26;;;;;;;7.15;5.80;;;20.60;49.20;;;;;;5076063;28;20119;-63
2022/05/01 10:47:54;;;;;;;7.20;5.88;;;20.60;49.10;;;;;;5074795;28;20123;-64
2022/05/01 10:50:24;;;;;;;7.68;6.13;;;20.50;49.60;;;;;;5075534;28;20029;-64
2022/05/01 10:53:06;;;;;;;8.75;5.80;;;20.50;49.80;;;;;;5075476;28;20051;-64
2022/05/01 10:55:52;;;;;;;12.57;4.15;;;20.40;50.20;;;;;;5075119;28;20123;-64
2022/05/01 10:58:26;;;;;;;8.52;4.05;;;20.30;47.60;;;;;;5073856;28;20053;-63
2022/05/01 11:00:54;;;;;;;9.35;3.95;;;20.30;46.80;;;;;;5072820;28;20614;-64
2022/05/01 11:03:27;;;;;;;11.05;6.00;;;20.30;46.70;;;;;;5072587;28;20036;-62
2022/05/01 11:06:02;;;;;;;7.05;6.15;;;20.20;49.70;;;;;;5074566;28;20036;-66
2022/05/01 11:08:32;;;;;;;6.35;5.63;;;20.20;49.80;;;;;;5075198;28;20040;-63
2022/05/01 11:11:00;;;;;;;6.68;5.95;;;20.20;49.30;;;;;;5074509;28;20028;-62
2022/05/01 11:13:36;;;;;;;12.27;6.13;;;20.20;49.80;;;;;;5072728;28;20041;-64
2022/05/01 11:16:03;;;;;;;7.30;6.13;;;20.10;49.50;;;;;;5072146;28;20040;-66
2022/05/01 11:18:30;;;;;;;6.75;5.57;;;20.10;49.80;;;;;;5073687;28;20029;-63
2022/05/01 11:21:21;;;;;;;7.75;5.60;;;20.10;49.60;;;;;;5073101;28;20093;-64
2022/05/01 11:23:57;;;;;;;10.57;6.22;;;20.00;50.00;;;;;;5072197;28;20092;-64
2022/05/01 11:26:22;;;;;;;12.38;5.97;;;19.90;52.70;;;;;;5072981;28;20044;-63
2022/05/01 11:28:52;;;;;;;11.75;5.68;;;19.80;54.90;;;;;;5074628;28;20036;-64
2022/05/01 11:31:36;;;;;;;8.10;5.88;;;19.70;56.40;;;;;;5074697;28;20036;-63
2022/05/01 11:34:25;;;;;;;11.18;6.03;;;19.60;56.60;;;;;;5074757;28;20549;-63
2022/05/01 11:37:01;;;;;;;10.88;5.80;;;19.50;57.10;;;;;;5063996;28;20086;-64
2022/05/01 11:39:45;;;;;;;11.40;5.90;;;19.40;57.80;;;;;;5074662;28;20532;-63
2022/05/01 11:42:25;;;;;;;9.13;6.03;;;19.20;58.50;;;;;;5074549;28;20507;-63
2022/05/01 11:44:53;;;;;;;10.40;6.13;;;19.10;60.20;;;;;;5074072;28;20044;-63
2022/05/01 11:47:19;;;;;;;9.55;5.43;;;19.00;60.50;;;;;;5074302;28;20488;-62
2022/05/01 11:49:45;;;;;;;6.22;5.40;;;18.90;60.10;;;;;;5074346;28;20032;-63
2022/05/01 11:52:13;;;;;;;7.28;6.20;;;18.80;62.00;;;;;;5074591;28;20028;-63
2022/05/01 11:54:59;;;;;;;10.50;5.72;;;18.70;63.60;;;;;;5073929;28;20067;-64
2022/05/01 12:02:24;;;;;;;8.93;5.80;;;18.60;64.50;;;;;;5074728;28;20056;-63
2022/05/01 12:03:12;;;;;;;7.72;6.28;;;18.50;66.60;;;;;;5074082;28;20559;-64
2022/05/01 12:05:49;;;;;;;7.28;6.40;;;18.40;67.80;;;;;;5073738;28;20036;-64
2022/05/01 12:08:19;;;;;;;7.13;5.45;;;18.40;67.50;;;;;;5074056;28;20033;-62
2022/05/01 12:10:45;;;;;;;9.27;6.25;;;18.40;66.00;;;;;;5074361;28;20041;-62
2022/05/01 12:13:23;;;;;;;10.57;6.20;;;18.40;66.60;;;;;;5073657;28;20028;-63
2022/05/01 12:15:50;;;;;;;7.53;6.05;;;18.30;67.70;;;;;;5073558;28;20082;-62
2022/05/01 12:18:17;;;;;;;11.63;6.90;;;18.30;68.80;;;;;;5073732;28;20035;-63
2022/05/01 12:20:43;;;;;;;9.65;6.30;;;18.30;69.20;;;;;;5073524;28;20076;-63
2022/05/01 12:23:20;;;;;;;10.00;5.65;;;18.30;69.10;;;;;;5073641;28;20052;-63
2022/05/01 12:25:50;;;;;;;6.20;5.60;;;18.30;67.50;;;;;;5073656;28;20043;-63
2022/05/01 12:28:18;;;;;;;11.27;6.55;;;18.20;67.60;;;;;;5073803;28;20041;-63
2022/05/01 12:30:49;;;;;;;8.50;6.85;;;18.20;68.80;;;;;;5074011;28;20079;-64
2022/05/01 12:33:24;;;;;;;8.00;5.72;;;18.30;69.20;;;;;;5073821;28;20037;-64
2022/05/01 12:35:59;;;;;;;7.78;6.28;;;18.50;68.40;;;;;;5073665;28;20031;-62
2022/05/01 12:38:30;;;;;;;8.20;5.13;;;18.70;69.20;;;;;;5073233;28;20095;-65
2022/05/01 12:43:58;;;;;;;6.38;4.80;;;19.00;65.80;;;;;;5073578;28;20039;-63
2022/05/01 12:46:30;;;;;;;6.68;5.03;;;19.00;64.50;;;;;;5073128;28;20415;-65
2022/05/01 12:49:02;;;;;;;7.00;5.15;;;19.00;65.00;;;;;;5073003;28;20067;-66
2022/05/01 12:51:41;;;;;;;5.63;5.03;;;19.00;65.20;;;;;;5073254;28;20047;-64
2022/05/01 12:54:16;;;;;;;5.95;4.65;;;19.00;64.00;;;;;;5073027;28;20036;-64
2022/05/01 12:56:43;;;;;;;7.47;5.00;;;19.00;62.30;;;;;;5072784;28;20045;-67
2022/05/01 12:59:26;;;;;;;8.75;4.45;;;19.00;61.40;;;;;;5072951;28;20039;-64
2022/05/01 13:01:53;;;;;;;5.43;4.30;;;19.00;62.50;;;;;;5073186;28;20573;-65
2022/05/01 13:04:26;;;;;;;10.63;5.72;;;19.00;62.80;;;;;;5072931;28;20037;-63
2022/05/01 13:06:53;;;;;;;6.05;4.20;;;19.00;63.90;;;;;;5072996;28;20093;-65
2022/05/01 13:09:19;;;;;;;7.80;4.63;;;19.00;62.60;;;;;;5072871;28;20419;-65
2022/05/01 13:12:03;;;;;;;7.18;4.43;;;19.00;62.40;;;;;;5072537;28;20069;-64
2022/05/01 13:14:32;;;;;;;5.07;4.50;;;19.00;62.90;;;;;;5072614;28;20036;-65
2022/05/01 13:17:12;;;;;;;6.28;4.60;;;18.90;63.40;;;;;;5072133;28;20044;-65
2022/05/01 13:19:40;;;;;;;7.47;4.40;;;18.90;64.40;;;;;;5072549;28;20060;-64
2022/05/01 13:22:07;;;;;;;9.27;4.95;;;18.90;63.70;;;;;;5072610;28;20497;-64
2022/05/01 13:24:35;;;;;;;8.93;4.63;;;18.90;63.80;;;;;;5072843;28;20025;-64
2022/05/01 13:27:06;;;;;;;6.75;4.53;;;18.80;63.40;;;;;;5072841;28;20435;-64
2022/05/01 13:29:33;;;;;;;5.85;4.65;;;18.80;63.40;;;;;;5071411;28;20111;-65
2022/05/01 13:32:03;;;;;;;5.25;4.75;;;18.90;62.90;;;;;;5059446;28;20086;-62
2022/05/01 13:34:29;;;;;;;8.07;5.68;;;18.90;62.60;;;;;;5067901;28;20093;-64
2022/05/01 13:36:56;;;;;;;6.72;4.20;;;18.90;63.40;;;;;;5070182;28;20080;-63
2022/05/01 13:39:22;;;;;;;5.68;4.43;;;18.90;63.20;;;;;;5072613;28;20111;-63
2022/05/01 13:44:44;;;;;;;7.03;4.40;;;18.90;63.40;;;;;;5070598;28;20051;-63
2022/05/01 13:47:11;;;;;;;6.72;4.07;;;18.80;63.70;;;;;;5070622;28;20044;-64
2022/05/01 13:49:39;;;;;;;9.52;4.70;;;18.70;63.50;;;;;;5071722;28;20552;-64
2022/05/01 13:52:06;;;;;;;6.78;4.75;;;18.70;63.10;;;;;;5072423;28;20032;-64
2022/05/01 13:54:32;;;;;;;6.25;4.75;;;18.60;64.60;;;;;;5072321;28;20060;-63
2022/05/01 13:56:58;;;;;;;10.90;4.78;;;18.60;66.60;;;;;;5071468;28;20076;-64
2022/05/01 13:59:24;;;;;;;8.93;5.00;;;18.50;65.60;;;;;;5071906;28;20063;-64
2022/05/01 14:01:52;;;;;;;6.57;4.53;;;18.50;66.50;;;;;;5072178;28;20089;-65
2022/05/01 14:04:18;;;;;;;8.80;4.70;;;18.60;67.60;;;;;;5072192;28;20477;-64
2022/05/01 14:06:44;;;;;;;5.72;3.83;;;18.40;66.40;;;;;;5073014;28;20495;-64
2022/05/01 14:09:11;;;;;;;6.65;3.97;;;18.40;63.30;;;;;;5075987;28;20040;-65
2022/05/01 14:11:37;;;;;;;7.28;3.95;;;18.30;62.20;;;;;;5075740;28;20051;-65
2022/05/01 14:14:03;;;;;;;4.10;3.70;;;18.30;62.30;;;;;;5073939;28;20058;-63
2022/05/01 14:16:29;;;;;;;10.07;4.00;;;18.20;62.70;;;;;;5075678;28;20396;-63
2022/05/01 14:18:57;;;;;;;7.68;4.20;;;18.20;62.50;;;;;;5076249;28;20043;-63
2022/05/01 14:21:24;;;;;;;4.95;4.15;;;18.10;62.60;;;;;;5076056;28;20090;-65
2022/05/01 14:23:51;;;;;;;7.30;3.92;;;18.00;63.50;;;;;;5075148;28;20044;-66
2022/05/01 14:26:17;;;;;;;4.60;4.10;;;18.00;63.80;;;;;;5075709;28;20382;-65
2022/05/01 14:28:43;;;;;;;6.28;3.85;;;18.00;63.50;;;;;;5075921;28;20043;-65
2022/05/01 14:31:35;;;;;;;4.25;3.50;;;17.90;63.70;;;;;;5075863;28;20113;-64